createdAt,value
2023-03-03T00:02:00.055Z,100259.53
2023-03-03T00:04:32.227Z,100264.09
2023-03-03T00:07:01.805Z,100267.16
2023-03-03T00:09:31.407Z,100267.22
2023-03-03T00:12:03.466Z,100273.81
2023-03-03T00:14:35.191Z,100268.75
2023-03-03T00:17:23.773Z,100256.31
2023-03-03T00:19:56.800Z,100258.13
2023-03-03T00:22:32.829Z,100263.59
2023-03-03T00:25:23.689Z,100257.22
2023-03-03T00:27:53.398Z,100249.53
2023-03-03T00:30:27.082Z,100248.25
2023-03-03T00:32:57.786Z,100244.09
2023-03-03T00:35:35.623Z,100251.97
2023-03-03T00:38:13.901Z,100240.75
2023-03-03T00:40:44.287Z,100247.72
2023-03-03T00:43:21.884Z,100255.06
2023-03-03T00:45:53.248Z,100248.78
2023-03-03T00:48:27.205Z,100243.34
2023-03-03T00:51:01.233Z,100255.69
2023-03-03T00:53:33.251Z,100262.72
2023-03-03T00:56:02.974Z,100255.41
2023-03-03T00:58:32.586Z,100252.13
2023-03-03T01:01:02.217Z,100259.16
2023-03-03T01:03:42.093Z,100258.41
2023-03-03T01:06:15.470Z,100245.97
2023-03-03T01:08:45.898Z,100254.78
2023-03-03T01:11:18.788Z,100252.25
2023-03-03T01:13:50.689Z,100253.47
2023-03-03T01:16:21.089Z,100246.19
2023-03-03T01:18:50.949Z,100238.56
2023-03-03T01:21:23.088Z,100244.38
2023-03-03T01:23:52.689Z,100253.75
2023-03-03T01:26:22.601Z,100240.44
2023-03-03T01:28:52.143Z,100259.34
2023-03-03T01:31:21.826Z,100250.31
2023-03-03T01:33:51.414Z,100254.78
2023-03-03T01:36:28.904Z,100261.56
2023-03-03T01:38:58.872Z,100275.63
2023-03-03T01:41:33.008Z,100279.72
2023-03-03T01:44:03.012Z,100284.72
2023-03-03T01:46:43.484Z,100292.81
2023-03-03T01:49:17.017Z,100278.69
2023-03-03T01:51:53.594Z,100274.00
2023-03-03T01:54:28.073Z,100270.91
2023-03-03T01:57:02.717Z,100273.59
2023-03-03T01:59:37.087Z,100278.16
2023-03-03T02:02:07.044Z,100285.84
2023-03-03T02:04:37.828Z,100271.78
2023-03-03T02:07:13.540Z,100271.63
2023-03-03T02:09:52.140Z,100272.56
2023-03-03T02:12:26.156Z,100263.25
2023-03-03T02:14:55.715Z,100259.22
2023-03-03T02:17:25.639Z,100258.47
2023-03-03T02:20:01.772Z,100262.09
2023-03-03T02:22:44.925Z,100263.06
2023-03-03T02:25:20.294Z,100262.41
2023-03-03T02:27:52.447Z,100260.38
2023-03-03T02:30:26.594Z,100273.31
2023-03-03T02:32:56.170Z,100272.47
2023-03-03T02:35:31.768Z,100263.59
2023-03-03T02:38:10.449Z,100261.56
2023-03-03T02:40:45.205Z,100262.06
2023-03-03T02:43:20.496Z,100263.84
2023-03-03T02:45:50.168Z,100283.72
2023-03-03T02:48:19.806Z,100270.63
2023-03-03T02:50:49.353Z,100258.81
2023-03-03T02:53:19.015Z,100259.53
2023-03-03T02:55:48.659Z,100262.69
2023-03-03T02:58:21.559Z,100260.06
2023-03-03T03:00:51.185Z,100257.03
2023-03-03T03:03:25.482Z,100254.78
2023-03-03T03:05:55.298Z,100246.22
2023-03-03T03:08:26.568Z,100259.72
2023-03-03T03:10:56.982Z,100256.53
2023-03-03T03:13:30.454Z,100256.41
2023-03-03T03:16:00.208Z,100250.38
2023-03-03T03:18:30.339Z,100251.75
2023-03-03T03:21:07.883Z,100259.69
2023-03-03T03:23:38.705Z,100258.53
2023-03-03T03:26:09.467Z,100265.59
2023-03-03T03:28:41.751Z,100276.97
2023-03-03T03:31:13.027Z,100267.66
2023-03-03T03:33:42.716Z,100268.88
2023-03-03T03:36:13.633Z,100267.09
2023-03-03T03:38:44.726Z,100259.13
2023-03-03T03:41:15.522Z,100257.81
2023-03-03T03:43:48.121Z,100256.44
2023-03-03T03:46:19.340Z,100255.09
2023-03-03T03:48:49.189Z,100258.09
2023-03-03T03:51:21.640Z,100264.63
2023-03-03T03:53:51.535Z,100261.81
2023-03-03T03:56:21.121Z,100262.47
2023-03-03T03:58:56.837Z,100265.56
2023-03-03T04:01:26.579Z,100267.22
2023-03-03T04:03:57.001Z,100257.97
2023-03-03T04:06:27.652Z,100264.91
2023-03-03T04:08:58.886Z,100262.38
2023-03-03T04:11:29.272Z,100270.28
2023-03-03T04:14:01.465Z,100270.56
2023-03-03T04:16:31.191Z,100270.78
2023-03-03T04:19:00.799Z,100259.84
2023-03-03T04:21:30.674Z,100269.22
2023-03-03T04:24:02.107Z,100272.84
2023-03-03T04:26:33.768Z,100277.81
2023-03-03T04:29:08.643Z,100278.84
2023-03-03T04:31:38.397Z,100284.41
2023-03-03T04:34:10.712Z,100294.09
2023-03-03T04:36:41.304Z,100286.50
2023-03-03T04:39:10.909Z,100285.56
2023-03-03T04:41:40.622Z,100299.69
2023-03-03T04:44:12.977Z,100297.72
2023-03-03T04:46:42.560Z,100302.16
2023-03-03T04:49:12.602Z,100307.38
2023-03-03T04:51:43.306Z,100293.91
2023-03-03T04:54:13.820Z,100286.88
2023-03-03T04:56:43.460Z,100288.75
2023-03-03T04:59:15.626Z,100297.63
2023-03-03T05:01:46.585Z,100301.66
2023-03-03T05:04:17.111Z,100296.31
2023-03-03T05:06:46.722Z,100293.03
2023-03-03T05:09:16.316Z,100295.75
2023-03-03T05:11:45.863Z,100285.72
2023-03-03T05:14:18.008Z,100296.13
2023-03-03T05:16:47.669Z,100299.50
2023-03-03T05:19:17.324Z,100302.25
2023-03-03T05:21:46.869Z,100303.09
2023-03-03T05:24:17.204Z,100294.81
2023-03-03T05:26:46.747Z,100300.97
2023-03-03T05:29:18.899Z,100302.00
2023-03-03T05:31:48.510Z,100301.75
2023-03-03T05:34:18.385Z,100303.59
2023-03-03T05:36:47.957Z,100308.13
2023-03-03T05:39:17.550Z,100304.72
2023-03-03T05:41:47.126Z,100299.75
2023-03-03T05:44:20.745Z,100298.22
2023-03-03T05:46:50.437Z,100301.13
2023-03-03T05:49:20.099Z,100303.22
2023-03-03T05:51:49.660Z,100288.28
2023-03-03T05:54:19.321Z,100291.88
2023-03-03T05:56:48.909Z,100290.09
2023-03-03T05:59:21.480Z,100279.97
2023-03-03T06:01:51.125Z,100271.56
2023-03-03T06:04:20.694Z,100272.00
2023-03-03T06:06:50.277Z,100262.88
2023-03-03T06:09:21.185Z,100266.50
2023-03-03T06:11:52.938Z,100269.88
2023-03-03T06:14:27.191Z,100274.19
2023-03-03T06:16:57.917Z,100277.13
2023-03-03T06:19:27.733Z,100270.84
2023-03-03T06:22:00.561Z,100283.25
2023-03-03T06:24:31.199Z,100297.19
2023-03-03T06:27:01.121Z,100307.31
2023-03-03T06:29:33.274Z,100310.72
2023-03-03T06:32:03.143Z,100322.25
2023-03-03T06:34:32.934Z,100330.50
2023-03-03T06:37:02.525Z,100335.69
2023-03-03T06:39:32.046Z,100337.84
2023-03-03T06:42:01.638Z,100328.94
2023-03-03T06:44:33.852Z,100331.47
2023-03-03T06:47:03.507Z,100333.00
2023-03-03T06:49:33.073Z,100338.22
2023-03-03T06:52:08.376Z,100332.72
2023-03-03T06:54:38.191Z,100331.75
2023-03-03T06:57:18.990Z,100330.91
2023-03-03T06:59:55.874Z,100327.56
2023-03-03T07:02:25.746Z,100336.63
2023-03-03T07:04:58.705Z,100333.22
2023-03-03T07:07:29.283Z,100330.91
2023-03-03T07:10:00.002Z,100330.00
2023-03-03T07:12:33.113Z,100336.91
2023-03-03T07:15:17.812Z,100343.34
2023-03-03T07:17:51.052Z,100344.47
2023-03-03T07:20:24.161Z,100334.94
2023-03-03T07:22:54.612Z,100347.00
2023-03-03T07:25:32.377Z,100343.66
2023-03-03T07:28:14.145Z,100354.19
2023-03-03T07:30:46.378Z,100346.81
2023-03-03T07:33:25.225Z,100349.38
2023-03-03T07:35:57.898Z,100356.41
2023-03-03T07:38:33.483Z,100358.06
2023-03-03T07:41:05.696Z,100365.84
2023-03-03T07:43:38.905Z,100365.50
2023-03-03T07:46:28.005Z,100363.50
2023-03-03T07:48:59.684Z,100371.50
2023-03-03T07:51:31.881Z,100368.31
2023-03-03T07:54:20.772Z,100365.13
2023-03-03T07:56:50.653Z,100360.00
2023-03-03T07:59:24.750Z,100362.53
2023-03-03T08:02:00.616Z,100365.13
2023-03-03T08:04:39.650Z,100370.38
2023-03-03T08:07:16.789Z,100365.59
2023-03-03T08:13:11.930Z,100357.28
2023-03-03T08:15:41.541Z,100368.69
2023-03-03T08:18:22.460Z,100368.84
2023-03-03T08:20:53.879Z,100367.72
2023-03-03T08:23:24.448Z,100364.22
2023-03-03T08:25:57.176Z,100366.63
2023-03-03T08:28:26.840Z,100362.41
2023-03-03T08:31:12.510Z,100367.78
2023-03-03T08:33:49.293Z,100380.44
2023-03-03T08:36:18.880Z,100380.25
2023-03-03T08:38:48.494Z,100380.06
2023-03-03T08:41:18.189Z,100386.84
2023-03-03T08:43:48.409Z,100383.25
2023-03-03T08:46:18.058Z,100384.66
2023-03-03T08:48:50.203Z,100386.88
2023-03-03T08:51:19.848Z,100390.31
2023-03-03T08:53:49.570Z,100396.75
2023-03-03T08:56:19.070Z,100389.88
2023-03-03T08:59:03.973Z,100391.72
2023-03-03T09:01:34.264Z,100400.72
2023-03-03T09:04:06.626Z,100406.66
2023-03-03T09:06:36.184Z,100408.09
2023-03-03T09:09:06.165Z,100398.28
2023-03-03T09:11:36.010Z,100405.75
2023-03-03T09:14:13.121Z,100401.47
2023-03-03T09:16:46.051Z,100400.47
2023-03-03T09:19:26.835Z,100399.28
2023-03-03T09:21:57.775Z,100394.13
2023-03-03T09:24:29.708Z,100395.06
2023-03-03T09:27:01.230Z,100385.31
2023-03-03T09:29:32.091Z,100389.31
2023-03-03T09:32:03.478Z,100392.94
2023-03-03T09:34:41.391Z,100397.44
2023-03-03T09:37:24.629Z,100398.47
2023-03-03T09:39:55.585Z,100395.69
2023-03-03T09:42:44.167Z,100393.88
2023-03-03T09:45:33.336Z,100406.97
2023-03-03T09:48:25.762Z,100388.31
2023-03-03T09:51:09.135Z,100395.56
2023-03-03T09:53:54.126Z,100391.72
2023-03-03T09:56:31.766Z,100387.41
2023-03-03T09:59:12.694Z,100384.03
2023-03-03T10:02:03.479Z,100384.34
2023-03-03T10:04:54.295Z,100387.69
2023-03-03T10:07:38.550Z,100388.72
2023-03-03T10:10:22.300Z,100385.50
2023-03-03T10:13:04.233Z,100393.09
2023-03-03T10:15:45.578Z,100396.41
2023-03-03T10:18:27.067Z,100391.31
2023-03-03T10:21:07.455Z,100395.78
2023-03-03T10:23:59.394Z,100390.97
2023-03-03T10:27:09.796Z,100401.13
2023-03-03T10:29:49.451Z,100392.28
2023-03-03T10:32:34.834Z,100396.72
2023-03-03T10:35:19.286Z,100396.66
2023-03-03T10:38:00.779Z,100395.34
2023-03-03T10:40:40.819Z,100395.03
2023-03-03T10:43:38.057Z,100391.13
2023-03-03T10:46:23.277Z,100392.34
2023-03-03T10:49:16.305Z,100391.81
2023-03-03T10:51:58.850Z,100392.56
2023-03-03T10:54:41.159Z,100389.31
2023-03-03T10:57:20.230Z,100378.31
2023-03-03T11:00:05.588Z,100374.41
2023-03-03T11:02:46.449Z,100372.91
2023-03-03T11:05:35.909Z,100370.88
2023-03-03T11:08:11.051Z,100374.13
2023-03-03T11:10:51.819Z,100374.59
2023-03-03T11:13:35.559Z,100366.50
2023-03-03T11:16:29.208Z,100373.75
2023-03-03T11:19:15.994Z,100365.75
2023-03-03T11:21:52.837Z,100370.69
2023-03-03T11:24:32.602Z,100370.13
2023-03-03T11:27:16.013Z,100363.97
2023-03-03T11:29:59.480Z,100360.25
2023-03-03T11:32:40.566Z,100361.84
2023-03-03T11:35:25.073Z,100363.50
2023-03-03T11:38:06.250Z,100364.25
2023-03-03T11:40:47.899Z,100352.25
2023-03-03T11:43:35.623Z,100355.78
2023-03-03T11:46:14.436Z,100366.56
2023-03-03T11:48:53.517Z,100355.66
2023-03-03T11:51:29.962Z,100356.00
2023-03-03T11:54:06.992Z,100351.59
2023-03-03T11:56:42.418Z,100351.41
2023-03-03T11:59:44.654Z,100343.78
2023-03-03T12:02:44.184Z,100344.28
2023-03-03T12:05:26.034Z,100347.22
2023-03-03T12:08:06.168Z,100342.47
2023-03-03T12:10:44.080Z,100338.81
2023-03-03T12:13:26.352Z,100335.84
2023-03-03T12:16:03.397Z,100327.28
2023-03-03T12:18:56.404Z,100330.13
2023-03-03T12:21:38.337Z,100335.19
2023-03-03T12:24:30.232Z,100333.84
2023-03-03T12:27:13.520Z,100328.59
2023-03-03T12:29:52.085Z,100330.13
2023-03-03T12:32:33.480Z,100326.63
2023-03-03T12:35:13.012Z,100325.94
2023-03-03T12:37:56.530Z,100324.69
2023-03-03T12:40:29.214Z,100321.22
2023-03-03T12:43:10.760Z,100319.22
2023-03-03T12:45:50.282Z,100317.06
2023-03-03T12:48:24.309Z,100312.41
2023-03-03T12:51:10.128Z,100307.34
2023-03-03T12:54:13.757Z,100302.25
2023-03-03T12:56:49.771Z,100309.09
2023-03-03T12:59:23.830Z,100304.59
2023-03-03T13:02:11.969Z,100303.31
2023-03-03T13:04:47.634Z,100308.72
2023-03-03T13:07:22.699Z,100305.81
2023-03-03T13:10:11.602Z,100302.84
2023-03-03T13:12:47.058Z,100298.78
2023-03-03T13:15:31.765Z,100301.84
2023-03-03T13:18:28.218Z,100286.78
2023-03-03T13:21:06.293Z,100288.88
2023-03-03T13:23:50.744Z,100293.59
2023-03-03T13:26:25.669Z,100292.19
2023-03-03T13:29:03.353Z,100285.72
2023-03-03T13:31:37.162Z,100289.53
2023-03-03T13:34:07.185Z,100290.88
2023-03-03T13:36:42.197Z,100285.94
2023-03-03T13:39:23.024Z,100282.28
2023-03-03T13:41:59.234Z,100283.38
2023-03-03T13:44:34.678Z,100281.38
2023-03-03T13:47:16.739Z,100272.38
2023-03-03T13:50:06.569Z,100272.56
2023-03-03T13:52:45.577Z,100262.34
2023-03-03T13:55:26.663Z,100260.59
2023-03-03T13:58:07.587Z,100259.72
2023-03-03T14:00:52.830Z,100260.75
2023-03-03T14:03:52.480Z,100244.91
2023-03-03T14:06:24.881Z,100242.97
2023-03-03T14:09:08.871Z,100244.03
2023-03-03T14:11:49.536Z,100248.25
2023-03-03T14:14:39.184Z,100238.44
2023-03-03T14:17:18.078Z,100232.31
2023-03-03T14:19:50.452Z,100236.66
2023-03-03T14:22:24.244Z,100234.78
2023-03-03T14:25:02.054Z,100229.28
2023-03-03T14:27:39.379Z,100240.78
2023-03-03T14:30:31.872Z,100232.09
2023-03-03T14:33:04.638Z,100225.97
2023-03-03T14:35:37.557Z,100227.91
2023-03-03T14:38:15.830Z,100225.94
2023-03-03T14:40:47.767Z,100231.06
2023-03-03T14:43:30.146Z,100226.97
2023-03-03T14:45:59.962Z,100216.78
2023-03-03T14:48:32.624Z,100214.91
2023-03-03T14:51:18.554Z,100211.72
2023-03-03T14:53:50.694Z,100216.81
2023-03-03T14:56:26.386Z,100215.28
2023-03-03T14:59:19.215Z,100207.50
2023-03-03T15:01:49.753Z,100203.19
2023-03-03T15:04:28.456Z,100199.38
2023-03-03T15:06:58.969Z,100207.75
2023-03-03T15:09:39.306Z,100206.25
2023-03-03T15:12:37.931Z,100203.25
2023-03-03T15:15:21.326Z,100197.28
2023-03-03T15:18:00.491Z,100206.44
2023-03-03T15:20:39.952Z,100203.06
2023-03-03T15:23:24.461Z,100202.50
2023-03-03T15:26:02.319Z,100193.59
2023-03-03T15:28:55.321Z,100197.03
2023-03-03T15:31:37.387Z,100194.47
2023-03-03T15:34:23.264Z,100189.09
2023-03-03T15:36:59.293Z,100187.88
2023-03-03T15:39:39.217Z,100186.19
2023-03-03T15:42:16.428Z,100188.91
2023-03-03T15:44:59.332Z,100184.38
2023-03-03T15:47:53.824Z,100176.53
2023-03-03T15:50:47.767Z,100169.88
2023-03-03T15:53:31.957Z,100170.97
2023-03-03T15:56:22.430Z,100172.72
2023-03-03T15:59:30.784Z,100177.63
2023-03-03T16:02:12.604Z,100179.78
2023-03-03T16:04:55.483Z,100182.38
2023-03-03T16:07:35.789Z,100186.91
2023-03-03T16:10:16.232Z,100192.59
2023-03-03T16:12:57.884Z,100189.25
2023-03-03T16:15:40.557Z,100203.16
2023-03-03T16:18:20.747Z,100206.50
2023-03-03T16:21:05.979Z,100202.25
2023-03-03T16:23:48.283Z,100202.81
2023-03-03T16:26:31.668Z,100204.31
2023-03-03T16:29:14.498Z,100201.66
2023-03-03T16:31:50.135Z,100204.34
2023-03-03T16:34:24.668Z,100201.56
2023-03-03T16:37:06.662Z,100204.13
2023-03-03T16:39:49.755Z,100200.88
2023-03-03T16:42:28.012Z,100201.66
2023-03-03T16:45:11.787Z,100206.50
2023-03-03T16:47:52.642Z,100208.72
2023-03-03T16:50:29.469Z,100208.81
2023-03-03T16:53:09.767Z,100209.19
2023-03-03T16:55:45.677Z,100216.53
2023-03-03T16:58:29.003Z,100213.13
2023-03-03T17:01:08.767Z,100218.03
2023-03-03T17:03:50.365Z,100213.94
2023-03-03T17:06:26.327Z,100217.09
2023-03-03T17:09:26.689Z,100212.63
2023-03-03T17:12:16.020Z,100214.94
2023-03-03T17:15:02.307Z,100208.19
2023-03-03T17:17:43.993Z,100211.13
2023-03-03T17:20:27.670Z,100211.59
2023-03-03T17:23:11.462Z,100212.91
2023-03-03T17:25:48.149Z,100218.78
2023-03-03T17:28:31.162Z,100218.66
2023-03-03T17:31:11.111Z,100214.28
2023-03-03T17:33:57.449Z,100215.63
2023-03-03T17:36:45.451Z,100226.69
2023-03-03T17:39:41.235Z,100220.34
2023-03-03T17:42:22.189Z,100222.38
2023-03-03T17:45:01.097Z,100221.84
2023-03-03T17:47:44.682Z,100231.59
2023-03-03T17:50:27.433Z,100227.53
2023-03-03T17:53:18.852Z,100232.28
2023-03-03T17:56:04.623Z,100244.91
2023-03-03T17:59:10.001Z,100236.50
2023-03-03T18:02:01.746Z,100228.56
2023-03-03T18:04:45.028Z,100234.13
2023-03-03T18:07:33.096Z,100241.38
2023-03-03T18:10:45.779Z,100234.66
2023-03-03T18:13:35.060Z,100235.25
2023-03-03T18:16:19.211Z,100245.72
2023-03-03T18:19:10.896Z,100245.09
2023-03-03T18:21:46.911Z,100241.81
2023-03-03T18:24:30.173Z,100249.63
2023-03-03T18:27:16.470Z,100246.41
2023-03-03T18:30:33.537Z,100246.13
2023-03-03T18:33:16.217Z,100246.81
2023-03-03T18:35:49.425Z,100240.97
2023-03-03T18:38:30.468Z,100242.31
2023-03-03T18:41:02.758Z,100251.59
2023-03-03T18:43:56.356Z,100228.50
2023-03-03T18:46:48.397Z,100232.81
2023-03-03T18:49:21.197Z,100233.88
2023-03-03T18:52:15.295Z,100230.59
2023-03-03T18:54:45.481Z,100228.19
2023-03-03T18:57:18.570Z,100227.63
2023-03-03T18:59:57.297Z,100223.91
2023-03-03T19:02:40.200Z,100229.97
2023-03-03T19:05:23.430Z,100218.22
2023-03-03T19:07:59.165Z,100223.72
2023-03-03T19:10:43.636Z,100220.44
2023-03-03T19:13:49.553Z,100214.56
2023-03-03T19:16:36.798Z,100219.91
2023-03-03T19:19:17.331Z,100220.63
2023-03-03T19:21:53.506Z,100218.38
2023-03-03T19:24:40.981Z,100216.66
2023-03-03T19:27:30.856Z,100217.88
2023-03-03T19:30:10.409Z,100216.31
2023-03-03T19:33:12.193Z,100219.34
2023-03-03T19:35:53.586Z,100204.88
2023-03-03T19:38:36.569Z,100205.47
2023-03-03T19:41:22.631Z,100194.56
2023-03-03T19:44:04.532Z,100203.91
2023-03-03T19:46:53.239Z,100198.66
2023-03-03T19:49:36.478Z,100200.53
2023-03-03T19:52:11.728Z,100201.63
2023-03-03T19:54:56.958Z,100200.22
2023-03-03T19:57:43.260Z,100198.03
2023-03-03T20:00:21.696Z,100191.13
2023-03-03T20:03:08.450Z,100190.31
2023-03-03T20:05:46.781Z,100190.88
2023-03-03T20:08:23.983Z,100196.91
2023-03-03T20:10:59.925Z,100192.72
2023-03-03T20:13:54.915Z,100192.97
2023-03-03T20:16:37.308Z,100191.94
2023-03-03T20:19:20.400Z,100195.19
2023-03-03T20:22:02.858Z,100191.72
2023-03-03T20:24:50.583Z,100188.88
2023-03-03T20:27:26.990Z,100189.47
2023-03-03T20:30:16.941Z,100178.50
2023-03-03T20:32:59.642Z,100179.97
2023-03-03T20:35:40.481Z,100191.59
2023-03-03T20:38:21.127Z,100186.16
2023-03-03T20:40:58.839Z,100192.94
2023-03-03T20:43:45.073Z,100189.72
2023-03-03T20:46:23.404Z,100182.38
2023-03-03T20:49:17.272Z,100190.44
2023-03-03T20:51:56.195Z,100183.69
2023-03-03T20:54:35.738Z,100183.78
2023-03-03T20:57:13.026Z,100181.16
2023-03-03T20:59:51.889Z,100179.22
2023-03-03T21:02:28.580Z,100177.81
2023-03-03T21:05:12.881Z,100176.44
2023-03-03T21:07:54.352Z,100169.13
2023-03-03T21:10:26.668Z,100173.50
2023-03-03T21:12:57.682Z,100171.88
2023-03-03T21:15:35.786Z,100163.97
2023-03-03T21:18:24.068Z,100163.94
2023-03-03T21:20:54.098Z,100162.34
2023-03-03T21:23:23.921Z,100154.03
2023-03-03T21:25:55.003Z,100152.75
2023-03-03T21:28:27.737Z,100142.34
2023-03-03T21:31:17.748Z,100153.16
2023-03-03T21:33:50.267Z,100137.31
2023-03-03T21:36:23.281Z,100135.28
2023-03-03T21:38:55.034Z,100140.28
2023-03-03T21:41:24.753Z,100129.72
2023-03-03T21:43:56.401Z,100129.09
2023-03-03T21:46:28.596Z,100127.78
2023-03-03T21:48:58.143Z,100123.00
2023-03-03T21:51:28.897Z,100115.38
2023-03-03T21:53:58.768Z,100108.91
2023-03-03T21:56:28.291Z,100113.75
2023-03-03T21:58:57.808Z,100116.69
2023-03-03T22:01:29.972Z,100108.34
2023-03-03T22:04:00.106Z,100101.00
2023-03-03T22:06:29.925Z,100102.53
2023-03-03T22:08:59.564Z,100107.03
2023-03-03T22:11:29.099Z,100101.75
2023-03-03T22:13:58.627Z,100095.09
2023-03-03T22:16:31.009Z,100097.22
2023-03-03T22:19:02.741Z,100100.50
2023-03-03T22:21:33.097Z,100096.66
2023-03-03T22:24:02.634Z,100094.75
2023-03-03T22:26:32.191Z,100100.72
2023-03-03T22:29:01.856Z,100095.16
2023-03-03T22:31:34.152Z,100093.41
2023-03-03T22:34:04.653Z,100092.63
2023-03-03T22:36:34.303Z,100092.84
2023-03-03T22:39:03.828Z,100094.94
2023-03-03T22:41:33.350Z,100088.56
2023-03-03T22:44:02.865Z,100086.03
2023-03-03T22:46:35.028Z,100083.13
2023-03-03T22:49:04.745Z,100093.00
2023-03-03T22:51:34.297Z,100083.50
2023-03-03T22:54:05.156Z,100086.19
2023-03-03T22:56:34.891Z,100073.50
2023-03-03T22:59:04.504Z,100083.28
2023-03-03T23:01:36.666Z,100071.22
2023-03-03T23:04:06.504Z,100071.81
2023-03-03T23:06:36.067Z,100072.38
2023-03-03T23:09:05.692Z,100075.72
2023-03-03T23:11:35.283Z,100071.03
2023-03-03T23:14:04.925Z,100066.03
2023-03-03T23:16:37.030Z,100072.88
2023-03-03T23:19:06.582Z,100063.00
2023-03-03T23:21:36.148Z,100058.38
2023-03-03T23:24:06.652Z,100052.94
2023-03-03T23:26:36.291Z,100058.69
2023-03-03T23:29:05.924Z,100052.69
2023-03-03T23:31:38.077Z,100059.78
2023-03-03T23:34:07.801Z,100053.94
2023-03-03T23:36:37.370Z,100052.44
2023-03-03T23:39:07.323Z,100060.03
2023-03-03T23:41:38.466Z,100060.28
2023-03-03T23:44:08.081Z,100051.53
2023-03-03T23:46:40.669Z,100049.47
2023-03-03T23:49:10.494Z,100043.19
2023-03-03T23:51:40.062Z,100049.41
2023-03-03T23:54:09.589Z,100045.63
2023-03-03T23:56:39.126Z,100058.47
2023-03-03T23:59:08.642Z,100051.91
